Pacific Hope — 3FLH6 — position and weather

sailwx.info

Track history (hours):
 
Tides and Currents Weather Stations Pressure Air Temp Water Temp Dewpoint Dewpoint Depression Visibility Wind Speed Wind Dir Waves Ship Positions

Pacific Hope

Last reported at 2016-Apr-22 15:16 UTC. Time now 2016-May-01 06:11 UTC.
Position N 35°26' E 141°07'.
Warning: this ship's position is 8 days out of date.

Length 169 m; draft 9.5 m.

Type: Cargo ship. MMSI: 351849000.

Date/timePositionNaut miles runAvg speedWind from/ knotsBaromVisibWave heightAir tempDewpointWater temp
2016-Apr-22 15:16N 35°26' E 141°07'10 9.6
2016-Apr-22 14:11N 35°36' E 141°04'811.4
2016-Apr-22 13:27N 35°44' E 141°01'1110.0
2016-Apr-22 12:22N 35°53' E 140°53'910.6
2016-Apr-22 11:33N 35°59' E 140°45'5 1.7
2016-Apr-22 08:27N 35°55' E 140°41'0 0.0
2016-Apr-22 07:06N 35°55' E 140°41'0 0.0
2016-Apr-22 06:30N 35°55' E 140°41'0 0.0
2016-Apr-22 05:15N 35°55' E 140°41'0 0.0
2016-Apr-22 04:33N 35°55' E 140°41'0 0.0
2016-Apr-22 03:03N 35°55' E 140°41'0 0.0
2016-Apr-22 01:27N 35°55' E 140°41'0 0.0
2016-Apr-22 00:33N 35°55' E 140°41'0 0.0
2016-Apr-21 23:15N 35°55' E 140°41'0 0.0
2016-Apr-21 22:30N 35°55' E 140°41'0 0.0
2016-Apr-21 21:18N 35°55' E 140°41'0 0.0
2016-Apr-21 20:06N 35°55' E 140°41'0 0.0
2016-Apr-21 19:15N 35°55' E 140°41'0 0.0
2016-Apr-21 18:18N 35°55' E 140°41'0 0.0
2016-Apr-21 17:33N 35°55' E 140°41'0 0.0
2016-Apr-21 16:15N 35°55' E 140°41'0 0.0
2016-Apr-21 15:30N 35°55' E 140°41'0 0.0
2016-Apr-21 13:27N 35°55' E 140°41'0 0.0
2016-Apr-21 12:30N 35°55' E 140°41'0 0.0
2016-Apr-21 11:33N 35°55' E 140°41'0 0.0
2016-Apr-21 10:30N 35°55' E 140°41'0 0.0
2016-Apr-20 23:21N 35°55' E 140°41'0 0.0
2016-Apr-20 22:33N 35°55' E 140°41'0 0.0
2016-Apr-20 21:24N 35°55' E 140°41'0 0.0
2016-Apr-20 20:27N 35°55' E 140°41'0 0.0
2016-Apr-20 19:33N 35°55' E 140°41'0 0.0
2016-Apr-20 18:09N 35°55' E 140°41'0 0.0
2016-Apr-20 17:33N 35°55' E 140°41'0 0.0
2016-Apr-20 16:18N 35°55' E 140°41'0 0.0
2016-Apr-20 15:30N 35°55' E 140°41'0 0.0
2016-Apr-20 14:15N 35°55' E 140°41'0 0.0
2016-Apr-20 13:33N 35°55' E 140°41'0 0.0
2016-Apr-20 12:27N 35°55' E 140°41'0 0.0
2016-Apr-20 11:30N 35°55' E 140°41'0 0.0
2016-Apr-20 10:21N 35°55' E 140°41'0 0.0
2016-Apr-20 09:33N 35°55' E 140°41'0 0.0
2016-Apr-20 08:21N 35°55' E 140°41'0 0.0
2016-Apr-20 07:15N 35°55' E 140°41'0 0.0
2016-Apr-20 06:33N 35°55' E 140°41'0 0.0
2016-Apr-20 04:27N 35°55' E 140°41'0 0.0
2016-Apr-20 03:27N 35°55' E 140°41'0 0.0
2016-Apr-20 02:33N 35°55' E 140°41'0 0.0
2016-Apr-20 01:33N 35°55' E 140°41'0 0.0
2016-Apr-20 00:24N 35°55' E 140°41'0 0.0
2016-Apr-19 23:30N 35°55' E 140°41'0 0.0
2016-Apr-19 22:33N 35°55' E 140°41'0 0.0
2016-Apr-19 21:27N 35°55' E 140°41'0 0.0
2016-Apr-19 20:18N 35°55' E 140°41'0 0.0
2016-Apr-19 18:33N 35°55' E 140°41'0 0.0
2016-Apr-19 17:15N 35°55' E 140°41'0 0.0
2016-Apr-19 16:21N 35°55' E 140°41'0 0.0
2016-Apr-19 15:27N 35°55' E 140°41'0 0.0
2016-Apr-19 14:21N 35°55' E 140°41'0 0.0
2016-Apr-19 13:27N 35°55' E 140°41'0 0.0
2016-Apr-19 12:33N 35°55' E 140°41'0 0.0
2016-Apr-19 11:12N 35°55' E 140°41'0 0.0
2016-Apr-19 10:21N 35°55' E 140°41'0 0.0
2016-Apr-19 09:18N 35°55' E 140°41'0 0.2
2016-Apr-19 08:31N 35°55' E 140°41'7 7.1
2016-Apr-19 07:33N 36°01' E 140°45'1 1.0
2016-Apr-19 06:33N 36°02' E 140°46'0 0.0
2016-Apr-19 05:21N 36°02' E 140°46'0 0.0
2016-Apr-19 04:30N 36°02' E 140°46'0 0.0
2016-Apr-19 03:30N 36°02' E 140°46'0 0.0
2016-Apr-19 02:24N 36°02' E 140°46'0 0.0
2016-Apr-18 23:30N 36°02' E 140°46'0 0.0
2016-Apr-18 21:30N 36°02' E 140°46'0 0.1
2016-Apr-18 20:33N 36°02' E 140°46'0 0.0
2016-Apr-18 19:33N 36°02' E 140°46'0 0.0
2016-Apr-18 18:33N 36°02' E 140°46'0 0.0
2016-Apr-18 17:33N 36°02' E 140°46'0 0.0
2016-Apr-18 16:33N 36°02' E 140°46'0 0.0
2016-Apr-18 15:33N 36°02' E 140°46'0 0.1
2016-Apr-18 14:33N 36°02' E 140°46'4 4.4
2016-Apr-18 13:33N 35°58' E 140°48'9 9.4
2016-Apr-18 12:33N 35°51' E 140°56'1211.6
2016-Apr-18 11:33N 35°40' E 140°58'1312.5
2016-Apr-18 10:33N 35°28' E 140°51'1613.5
2016-Apr-18 09:20N 35°15' E 140°40'1216.0
2016-Apr-18 08:33N 35°05' E 140°30'1616.5
2016-Apr-18 07:34N 34°54' E 140°15'1615.6
2016-Apr-18 06:31N 34°42' E 140°01'3414.7
2016-Apr-18 04:14N 34°18' E 139°32'  
2016-Apr-14 11:33N 24°54' E 119°45'2511.8
2016-Apr-14 09:26N 24°45' E 119°19'1112.4
2016-Apr-14 08:33N 24°48' E 119°08'9 8.8
2016-Apr-14 07:33N 24°56' E 119°03'8 8.2
2016-Apr-14 06:32N 25°04' E 119°01'9 9.2
2016-Apr-14 05:33N 25°13' E 118°59'2 1.6
2016-Apr-14 04:33N 25°14' E 118°58'0 0.0
2016-Apr-13 23:24N 25°14' E 118°58'0 0.0
2016-Apr-13 18:12N 25°14' E 118°58'0 0.0
2016-Apr-13 17:30N 25°14' E 118°58'0 0.0
2016-Apr-13 16:30N 25°14' E 118°58'0 0.0
2016-Apr-13 14:30N 25°14' E 118°58'0 0.0
2016-Apr-13 13:30N 25°14' E 118°58'0 0.0
2016-Apr-13 12:30N 25°14' E 118°58'0 0.0
2016-Apr-13 11:24N 25°14' E 118°58'0 0.0
2016-Apr-13 10:24N 25°14' E 118°58'0 0.0
2016-Apr-13 09:12N 25°14' E 118°58'0 0.0
2016-Apr-13 08:30N 25°14' E 118°58'0 0.0
2016-Apr-13 03:24N 25°14' E 118°58'0 0.0
2016-Apr-13 00:30N 25°14' E 118°58'0 0.0
2016-Apr-12 22:30N 25°14' E 118°58'0 0.0
2016-Apr-12 18:18N 25°14' E 118°58'0 0.0
2016-Apr-12 17:30N 25°14' E 118°58'0 0.0
2016-Apr-12 16:06N 25°14' E 118°58'0 0.0
2016-Apr-12 15:18N 25°14' E 118°58'  
Track history (hours):
 
Tides and Currents Weather Stations Pressure Air Temp Water Temp Dewpoint Dewpoint Depression Visibility Wind Speed Wind Dir Waves Ship Positions

Pacific Hope

Last reported at 2016-Apr-22 15:16 UTC. Time now 2016-May-01 06:11 UTC.
Position N 35°26' E 141°07'.
Warning: this ship's position is 8 days out of date.

Length 169 m; draft 9.5 m.

Type: Cargo ship. MMSI: 351849000.

Date/timePositionNaut miles runAvg speedWind from/ knotsBaromVisibWave heightAir tempDewpointWater temp
2016-Apr-22 15:16N 35°26' E 141°07'10 9.6
2016-Apr-22 14:11N 35°36' E 141°04'811.4
2016-Apr-22 13:27N 35°44' E 141°01'1110.0
2016-Apr-22 12:22N 35°53' E 140°53'910.6
2016-Apr-22 11:33N 35°59' E 140°45'5 1.7
2016-Apr-22 08:27N 35°55' E 140°41'0 0.0
2016-Apr-22 07:06N 35°55' E 140°41'0 0.0
2016-Apr-22 06:30N 35°55' E 140°41'0 0.0
2016-Apr-22 05:15N 35°55' E 140°41'0 0.0
2016-Apr-22 04:33N 35°55' E 140°41'0 0.0
2016-Apr-22 03:03N 35°55' E 140°41'0 0.0
2016-Apr-22 01:27N 35°55' E 140°41'0 0.0
2016-Apr-22 00:33N 35°55' E 140°41'0 0.0
2016-Apr-21 23:15N 35°55' E 140°41'0 0.0
2016-Apr-21 22:30N 35°55' E 140°41'0 0.0
2016-Apr-21 21:18N 35°55' E 140°41'0 0.0
2016-Apr-21 20:06N 35°55' E 140°41'0 0.0
2016-Apr-21 19:15N 35°55' E 140°41'0 0.0
2016-Apr-21 18:18N 35°55' E 140°41'0 0.0
2016-Apr-21 17:33N 35°55' E 140°41'0 0.0
2016-Apr-21 16:15N 35°55' E 140°41'0 0.0
2016-Apr-21 15:30N 35°55' E 140°41'0 0.0
2016-Apr-21 13:27N 35°55' E 140°41'0 0.0
2016-Apr-21 12:30N 35°55' E 140°41'0 0.0
2016-Apr-21 11:33N 35°55' E 140°41'0 0.0
2016-Apr-21 10:30N 35°55' E 140°41'0 0.0
2016-Apr-20 23:21N 35°55' E 140°41'0 0.0
2016-Apr-20 22:33N 35°55' E 140°41'0 0.0
2016-Apr-20 21:24N 35°55' E 140°41'0 0.0
2016-Apr-20 20:27N 35°55' E 140°41'0 0.0
2016-Apr-20 19:33N 35°55' E 140°41'0 0.0
2016-Apr-20 18:09N 35°55' E 140°41'0 0.0
2016-Apr-20 17:33N 35°55' E 140°41'0 0.0
2016-Apr-20 16:18N 35°55' E 140°41'0 0.0
2016-Apr-20 15:30N 35°55' E 140°41'0 0.0
2016-Apr-20 14:15N 35°55' E 140°41'0 0.0
2016-Apr-20 13:33N 35°55' E 140°41'0 0.0
2016-Apr-20 12:27N 35°55' E 140°41'0 0.0
2016-Apr-20 11:30N 35°55' E 140°41'0 0.0
2016-Apr-20 10:21N 35°55' E 140°41'0 0.0
2016-Apr-20 09:33N 35°55' E 140°41'0 0.0
2016-Apr-20 08:21N 35°55' E 140°41'0 0.0
2016-Apr-20 07:15N 35°55' E 140°41'0 0.0
2016-Apr-20 06:33N 35°55' E 140°41'0 0.0
2016-Apr-20 04:27N 35°55' E 140°41'0 0.0
2016-Apr-20 03:27N 35°55' E 140°41'0 0.0
2016-Apr-20 02:33N 35°55' E 140°41'0 0.0
2016-Apr-20 01:33N 35°55' E 140°41'0 0.0
2016-Apr-20 00:24N 35°55' E 140°41'0 0.0
2016-Apr-19 23:30N 35°55' E 140°41'0 0.0
2016-Apr-19 22:33N 35°55' E 140°41'0 0.0
2016-Apr-19 21:27N 35°55' E 140°41'0 0.0
2016-Apr-19 20:18N 35°55' E 140°41'0 0.0
2016-Apr-19 18:33N 35°55' E 140°41'0 0.0
2016-Apr-19 17:15N 35°55' E 140°41'0 0.0
2016-Apr-19 16:21N 35°55' E 140°41'0 0.0
2016-Apr-19 15:27N 35°55' E 140°41'0 0.0
2016-Apr-19 14:21N 35°55' E 140°41'0 0.0
2016-Apr-19 13:27N 35°55' E 140°41'0 0.0
2016-Apr-19 12:33N 35°55' E 140°41'0 0.0
2016-Apr-19 11:12N 35°55' E 140°41'0 0.0
2016-Apr-19 10:21N 35°55' E 140°41'0 0.0
2016-Apr-19 09:18N 35°55' E 140°41'0 0.2
2016-Apr-19 08:31N 35°55' E 140°41'7 7.1
2016-Apr-19 07:33N 36°01' E 140°45'1 1.0
2016-Apr-19 06:33N 36°02' E 140°46'0 0.0
2016-Apr-19 05:21N 36°02' E 140°46'0 0.0
2016-Apr-19 04:30N 36°02' E 140°46'0 0.0
2016-Apr-19 03:30N 36°02' E 140°46'0 0.0
2016-Apr-19 02:24N 36°02' E 140°46'0 0.0
2016-Apr-18 23:30N 36°02' E 140°46'0 0.0
2016-Apr-18 21:30N 36°02' E 140°46'0 0.1
2016-Apr-18 20:33N 36°02' E 140°46'0 0.0
2016-Apr-18 19:33N 36°02' E 140°46'0 0.0
2016-Apr-18 18:33N 36°02' E 140°46'0 0.0
2016-Apr-18 17:33N 36°02' E 140°46'0 0.0
2016-Apr-18 16:33N 36°02' E 140°46'0 0.0
2016-Apr-18 15:33N 36°02' E 140°46'0 0.1
2016-Apr-18 14:33N 36°02' E 140°46'4 4.4
2016-Apr-18 13:33N 35°58' E 140°48'9 9.4
2016-Apr-18 12:33N 35°51' E 140°56'1211.6
2016-Apr-18 11:33N 35°40' E 140°58'1312.5
2016-Apr-18 10:33N 35°28' E 140°51'1613.5
2016-Apr-18 09:20N 35°15' E 140°40'1216.0
2016-Apr-18 08:33N 35°05' E 140°30'1616.5
2016-Apr-18 07:34N 34°54' E 140°15'1615.6
2016-Apr-18 06:31N 34°42' E 140°01'3414.7
2016-Apr-18 04:14N 34°18' E 139°32'  
2016-Apr-14 11:33N 24°54' E 119°45'2511.8
2016-Apr-14 09:26N 24°45' E 119°19'1112.4
2016-Apr-14 08:33N 24°48' E 119°08'9 8.8
2016-Apr-14 07:33N 24°56' E 119°03'8 8.2
2016-Apr-14 06:32N 25°04' E 119°01'9 9.2
2016-Apr-14 05:33N 25°13' E 118°59'2 1.6
2016-Apr-14 04:33N 25°14' E 118°58'0 0.0
2016-Apr-13 23:24N 25°14' E 118°58'0 0.0
2016-Apr-13 18:12N 25°14' E 118°58'0 0.0
2016-Apr-13 17:30N 25°14' E 118°58'0 0.0
2016-Apr-13 16:30N 25°14' E 118°58'0 0.0
2016-Apr-13 14:30N 25°14' E 118°58'0 0.0
2016-Apr-13 13:30N 25°14' E 118°58'0 0.0
2016-Apr-13 12:30N 25°14' E 118°58'0 0.0
2016-Apr-13 11:24N 25°14' E 118°58'0 0.0
2016-Apr-13 10:24N 25°14' E 118°58'0 0.0
2016-Apr-13 09:12N 25°14' E 118°58'0 0.0
2016-Apr-13 08:30N 25°14' E 118°58'0 0.0
2016-Apr-13 03:24N 25°14' E 118°58'0 0.0
2016-Apr-13 00:30N 25°14' E 118°58'0 0.0
2016-Apr-12 22:30N 25°14' E 118°58'0 0.0
2016-Apr-12 18:18N 25°14' E 118°58'0 0.0
2016-Apr-12 17:30N 25°14' E 118°58'0 0.0
2016-Apr-12 16:06N 25°14' E 118°58'0 0.0
2016-Apr-12 15:18N 25°14' E 118°58'  

Dump ship's entire track history